sensor_id;sensor_type;location;lat;lon;timestamp;P1;durP1;ratioP1;P2;durP2;ratioP2
19225;SDS011;9747;48.536;12.522;2023-02-15T00:01:58;2.30;;;2.20;;
19225;SDS011;9747;48.536;12.522;2023-02-15T00:04:26;2.45;;;2.35;;
19225;SDS011;9747;48.536;12.522;2023-02-15T00:07:13;2.47;;;2.30;;
19225;SDS011;9747;48.536;12.522;2023-02-15T00:09:42;2.50;;;2.40;;
19225;SDS011;9747;48.536;12.522;2023-02-15T00:12:10;2.25;;;2.15;;
19225;SDS011;9747;48.536;12.522;2023-02-15T00:14:38;2.47;;;2.38;;
19225;SDS011;9747;48.536;12.522;2023-02-15T00:17:05;2.78;;;2.50;;
19225;SDS011;9747;48.536;12.522;2023-02-15T00:19:33;2.50;;;2.40;;
19225;SDS011;9747;48.536;12.522;2023-02-15T00:22:00;2.10;;;2.00;;
19225;SDS011;9747;48.536;12.522;2023-02-15T00:24:29;2.28;;;2.17;;
19225;SDS011;9747;48.536;12.522;2023-02-15T00:26:56;2.20;;;2.10;;
19225;SDS011;9747;48.536;12.522;2023-02-15T00:29:24;2.40;;;2.30;;
19225;SDS011;9747;48.536;12.522;2023-02-15T00:31:53;2.10;;;2.00;;
19225;SDS011;9747;48.536;12.522;2023-02-15T00:34:23;2.22;;;2.13;;
19225;SDS011;9747;48.536;12.522;2023-02-15T00:36:52;2.17;;;2.08;;
19225;SDS011;9747;48.536;12.522;2023-02-15T00:39:20;2.47;;;2.38;;
19225;SDS011;9747;48.536;12.522;2023-02-15T00:41:50;2.40;;;2.30;;
19225;SDS011;9747;48.536;12.522;2023-02-15T00:44:17;2.30;;;2.20;;
19225;SDS011;9747;48.536;12.522;2023-02-15T00:46:45;2.13;;;2.03;;
19225;SDS011;9747;48.536;12.522;2023-02-15T00:49:12;2.10;;;2.00;;
19225;SDS011;9747;48.536;12.522;2023-02-15T00:51:40;2.10;;;2.03;;
19225;SDS011;9747;48.536;12.522;2023-02-15T00:54:07;2.30;;;2.20;;
19225;SDS011;9747;48.536;12.522;2023-02-15T00:56:35;2.03;;;1.98;;
19225;SDS011;9747;48.536;12.522;2023-02-15T00:59:04;2.33;;;2.15;;
19225;SDS011;9747;48.536;12.522;2023-02-15T01:01:31;2.30;;;2.20;;
19225;SDS011;9747;48.536;12.522;2023-02-15T01:03:59;2.55;;;2.35;;
19225;SDS011;9747;48.536;12.522;2023-02-15T01:06:28;2.10;;;2.00;;
19225;SDS011;9747;48.536;12.522;2023-02-15T01:08:56;2.08;;;1.98;;
19225;SDS011;9747;48.536;12.522;2023-02-15T01:11:23;2.00;;;1.90;;
19225;SDS011;9747;48.536;12.522;2023-02-15T01:13:51;2.08;;;1.98;;
19225;SDS011;9747;48.536;12.522;2023-02-15T01:16:22;2.20;;;2.10;;
19225;SDS011;9747;48.536;12.522;2023-02-15T01:18:50;1.92;;;1.85;;
19225;SDS011;9747;48.536;12.522;2023-02-15T01:21:20;2.17;;;2.08;;
19225;SDS011;9747;48.536;12.522;2023-02-15T01:23:49;2.40;;;2.30;;
19225;SDS011;9747;48.536;12.522;2023-02-15T01:26:17;2.00;;;1.90;;
19225;SDS011;9747;48.536;12.522;2023-02-15T01:28:45;2.05;;;1.95;;
19225;SDS011;9747;48.536;12.522;2023-02-15T01:31:13;2.30;;;2.20;;
19225;SDS011;9747;48.536;12.522;2023-02-15T01:33:45;2.08;;;2.00;;
19225;SDS011;9747;48.536;12.522;2023-02-15T01:36:13;2.08;;;1.98;;
19225;SDS011;9747;48.536;12.522;2023-02-15T01:38:42;2.10;;;2.00;;
19225;SDS011;9747;48.536;12.522;2023-02-15T01:41:09;2.22;;;2.13;;
19225;SDS011;9747;48.536;12.522;2023-02-15T01:43:48;2.00;;;1.90;;
19225;SDS011;9747;48.536;12.522;2023-02-15T01:46:19;1.90;;;1.80;;
19225;SDS011;9747;48.536;12.522;2023-02-15T01:48:52;2.10;;;2.00;;
19225;SDS011;9747;48.536;12.522;2023-02-15T01:51:23;1.83;;;1.80;;
19225;SDS011;9747;48.536;12.522;2023-02-15T01:53:57;2.00;;;1.90;;
19225;SDS011;9747;48.536;12.522;2023-02-15T01:56:28;2.20;;;2.10;;
19225;SDS011;9747;48.536;12.522;2023-02-15T01:59:00;2.33;;;2.22;;
19225;SDS011;9747;48.536;12.522;2023-02-15T02:01:31;2.00;;;1.90;;
19225;SDS011;9747;48.536;12.522;2023-02-15T02:04:01;2.20;;;2.10;;
19225;SDS011;9747;48.536;12.522;2023-02-15T02:06:33;2.00;;;2.00;;
19225;SDS011;9747;48.536;12.522;2023-02-15T02:09:01;1.80;;;1.80;;
19225;SDS011;9747;48.536;12.522;2023-02-15T02:11:29;2.05;;;1.95;;
19225;SDS011;9747;48.536;12.522;2023-02-15T02:13:57;2.00;;;1.90;;
19225;SDS011;9747;48.536;12.522;2023-02-15T02:16:25;2.42;;;2.33;;
19225;SDS011;9747;48.536;12.522;2023-02-15T02:19:03;2.10;;;2.00;;
19225;SDS011;9747;48.536;12.522;2023-02-15T02:21:51;1.95;;;1.85;;
19225;SDS011;9747;48.536;12.522;2023-02-15T02:27:46;2.10;;;2.00;;
19225;SDS011;9747;48.536;12.522;2023-02-15T02:30:29;2.00;;;2.00;;
19225;SDS011;9747;48.536;12.522;2023-02-15T02:33:32;2.30;;;2.20;;
19225;SDS011;9747;48.536;12.522;2023-02-15T02:36:18;2.28;;;2.17;;
19225;SDS011;9747;48.536;12.522;2023-02-15T02:38:57;2.05;;;1.95;;
19225;SDS011;9747;48.536;12.522;2023-02-15T02:41:42;2.20;;;2.10;;
19225;SDS011;9747;48.536;12.522;2023-02-15T02:44:18;1.98;;;1.92;;
19225;SDS011;9747;48.536;12.522;2023-02-15T02:46:50;2.15;;;2.05;;
19225;SDS011;9747;48.536;12.522;2023-02-15T02:49:30;2.00;;;1.90;;
19225;SDS011;9747;48.536;12.522;2023-02-15T02:51:59;2.10;;;2.00;;
19225;SDS011;9747;48.536;12.522;2023-02-15T02:54:27;2.30;;;2.20;;
19225;SDS011;9747;48.536;12.522;2023-02-15T02:56:55;2.10;;;2.00;;
19225;SDS011;9747;48.536;12.522;2023-02-15T02:59:25;2.28;;;2.17;;
19225;SDS011;9747;48.536;12.522;2023-02-15T03:01:56;2.13;;;2.03;;
19225;SDS011;9747;48.536;12.522;2023-02-15T03:04:31;2.00;;;1.90;;
19225;SDS011;9747;48.536;12.522;2023-02-15T03:07:02;2.25;;;2.15;;
19225;SDS011;9747;48.536;12.522;2023-02-15T03:09:34;2.00;;;1.90;;
19225;SDS011;9747;48.536;12.522;2023-02-15T03:12:07;2.25;;;2.15;;
19225;SDS011;9747;48.536;12.522;2023-02-15T03:14:40;2.10;;;2.00;;
19225;SDS011;9747;48.536;12.522;2023-02-15T03:17:09;2.00;;;1.90;;
19225;SDS011;9747;48.536;12.522;2023-02-15T03:19:39;2.17;;;2.08;;
19225;SDS011;9747;48.536;12.522;2023-02-15T03:22:08;1.70;;;1.70;;
19225;SDS011;9747;48.536;12.522;2023-02-15T03:24:40;2.00;;;1.90;;
19225;SDS011;9747;48.536;12.522;2023-02-15T03:27:14;1.70;;;1.70;;
19225;SDS011;9747;48.536;12.522;2023-02-15T03:29:45;2.00;;;1.90;;
19225;SDS011;9747;48.536;12.522;2023-02-15T03:32:15;2.30;;;2.20;;
19225;SDS011;9747;48.536;12.522;2023-02-15T03:34:44;2.03;;;1.92;;
19225;SDS011;9747;48.536;12.522;2023-02-15T03:37:13;1.95;;;1.85;;
19225;SDS011;9747;48.536;12.522;2023-02-15T03:39:45;2.10;;;2.00;;
19225;SDS011;9747;48.536;12.522;2023-02-15T03:42:16;2.17;;;2.08;;
19225;SDS011;9747;48.536;12.522;2023-02-15T03:44:50;2.17;;;2.08;;
19225;SDS011;9747;48.536;12.522;2023-02-15T03:47:23;2.35;;;2.25;;
19225;SDS011;9747;48.536;12.522;2023-02-15T03:49:55;2.00;;;1.90;;
19225;SDS011;9747;48.536;12.522;2023-02-15T03:52:27;1.85;;;1.85;;
19225;SDS011;9747;48.536;12.522;2023-02-15T03:54:54;2.38;;;2.28;;
19225;SDS011;9747;48.536;12.522;2023-02-15T03:57:22;2.33;;;2.20;;
19225;SDS011;9747;48.536;12.522;2023-02-15T04:00:11;2.47;;;2.38;;
19225;SDS011;9747;48.536;12.522;2023-02-15T04:03:03;2.10;;;2.00;;
19225;SDS011;9747;48.536;12.522;2023-02-15T04:05:44;2.20;;;2.10;;
19225;SDS011;9747;48.536;12.522;2023-02-15T04:08:11;2.20;;;2.10;;
19225;SDS011;9747;48.536;12.522;2023-02-15T04:10:39;2.35;;;2.25;;
19225;SDS011;9747;48.536;12.522;2023-02-15T04:13:18;2.20;;;2.10;;
19225;SDS011;9747;48.536;12.522;2023-02-15T04:15:46;2.10;;;2.00;;
19225;SDS011;9747;48.536;12.522;2023-02-15T04:18:31;2.20;;;2.10;;
19225;SDS011;9747;48.536;12.522;2023-02-15T04:21:18;2.35;;;2.25;;
19225;SDS011;9747;48.536;12.522;2023-02-15T04:24:04;2.22;;;2.13;;
19225;SDS011;9747;48.536;12.522;2023-02-15T04:26:50;2.40;;;2.30;;
19225;SDS011;9747;48.536;12.522;2023-02-15T04:29:18;2.20;;;2.10;;
19225;SDS011;9747;48.536;12.522;2023-02-15T04:31:46;2.25;;;2.15;;
19225;SDS011;9747;48.536;12.522;2023-02-15T04:34:14;1.75;;;1.75;;
19225;SDS011;9747;48.536;12.522;2023-02-15T04:36:43;2.03;;;1.92;;
19225;SDS011;9747;48.536;12.522;2023-02-15T04:39:12;2.10;;;2.00;;
19225;SDS011;9747;48.536;12.522;2023-02-15T04:41:40;2.17;;;2.08;;
19225;SDS011;9747;48.536;12.522;2023-02-15T04:44:07;1.90;;;1.80;;
19225;SDS011;9747;48.536;12.522;2023-02-15T04:46:35;2.10;;;2.00;;
19225;SDS011;9747;48.536;12.522;2023-02-15T04:49:03;2.10;;;2.00;;
19225;SDS011;9747;48.536;12.522;2023-02-15T04:51:31;2.22;;;2.13;;
19225;SDS011;9747;48.536;12.522;2023-02-15T04:53:59;2.40;;;2.30;;
19225;SDS011;9747;48.536;12.522;2023-02-15T04:56:27;2.25;;;2.10;;
19225;SDS011;9747;48.536;12.522;2023-02-15T04:58:55;2.30;;;2.20;;
19225;SDS011;9747;48.536;12.522;2023-02-15T05:01:22;2.20;;;2.10;;
19225;SDS011;9747;48.536;12.522;2023-02-15T05:03:49;2.30;;;2.20;;
19225;SDS011;9747;48.536;12.522;2023-02-15T05:06:17;2.20;;;2.10;;
19225;SDS011;9747;48.536;12.522;2023-02-15T05:08:44;2.30;;;2.20;;
19225;SDS011;9747;48.536;12.522;2023-02-15T05:11:13;2.17;;;2.08;;
19225;SDS011;9747;48.536;12.522;2023-02-15T05:13:40;2.22;;;2.13;;
19225;SDS011;9747;48.536;12.522;2023-02-15T05:16:08;2.15;;;2.05;;
19225;SDS011;9747;48.536;12.522;2023-02-15T05:18:35;2.38;;;2.28;;
19225;SDS011;9747;48.536;12.522;2023-02-15T05:21:03;2.40;;;2.30;;
19225;SDS011;9747;48.536;12.522;2023-02-15T05:23:30;2.03;;;1.92;;
19225;SDS011;9747;48.536;12.522;2023-02-15T05:25:57;2.30;;;2.20;;
19225;SDS011;9747;48.536;12.522;2023-02-15T05:28:44;10.25;;;2.35;;
19225;SDS011;9747;48.536;12.522;2023-02-15T05:31:12;3.78;;;2.30;;
19225;SDS011;9747;48.536;12.522;2023-02-15T05:33:41;6.90;;;2.42;;
19225;SDS011;9747;48.536;12.522;2023-02-15T05:36:09;5.65;;;2.58;;
19225;SDS011;9747;48.536;12.522;2023-02-15T05:38:37;5.20;;;2.63;;
19225;SDS011;9747;48.536;12.522;2023-02-15T05:41:04;7.63;;;2.40;;
19225;SDS011;9747;48.536;12.522;2023-02-15T05:43:32;8.57;;;2.45;;
19225;SDS011;9747;48.536;12.522;2023-02-15T05:46:02;4.38;;;2.35;;
19225;SDS011;9747;48.536;12.522;2023-02-15T05:48:30;4.05;;;2.70;;
19225;SDS011;9747;48.536;12.522;2023-02-15T05:50:59;4.00;;;2.75;;
19225;SDS011;9747;48.536;12.522;2023-02-15T05:53:29;3.58;;;2.47;;
19225;SDS011;9747;48.536;12.522;2023-02-15T05:55:58;3.67;;;2.47;;
19225;SDS011;9747;48.536;12.522;2023-02-15T05:58:27;2.75;;;2.47;;
19225;SDS011;9747;48.536;12.522;2023-02-15T06:00:57;5.72;;;2.30;;
19225;SDS011;9747;48.536;12.522;2023-02-15T06:03:25;4.28;;;2.50;;
19225;SDS011;9747;48.536;12.522;2023-02-15T06:05:53;4.05;;;2.50;;
19225;SDS011;9747;48.536;12.522;2023-02-15T06:08:21;6.82;;;2.50;;
19225;SDS011;9747;48.536;12.522;2023-02-15T06:10:48;2.50;;;2.30;;
19225;SDS011;9747;48.536;12.522;2023-02-15T06:13:16;2.30;;;2.10;;
19225;SDS011;9747;48.536;12.522;2023-02-15T06:15:43;3.10;;;2.35;;
19225;SDS011;9747;48.536;12.522;2023-02-15T06:18:10;2.70;;;2.47;;
19225;SDS011;9747;48.536;12.522;2023-02-15T06:20:39;2.70;;;2.50;;
19225;SDS011;9747;48.536;12.522;2023-02-15T06:23:06;2.78;;;2.30;;
19225;SDS011;9747;48.536;12.522;2023-02-15T06:25:34;4.45;;;2.42;;
19225;SDS011;9747;48.536;12.522;2023-02-15T06:28:01;2.50;;;2.30;;
19225;SDS011;9747;48.536;12.522;2023-02-15T06:30:29;2.53;;;2.35;;
19225;SDS011;9747;48.536;12.522;2023-02-15T06:32:56;2.38;;;2.17;;
19225;SDS011;9747;48.536;12.522;2023-02-15T06:35:24;2.72;;;2.20;;
19225;SDS011;9747;48.536;12.522;2023-02-15T06:37:52;2.90;;;2.33;;
19225;SDS011;9747;48.536;12.522;2023-02-15T06:40:20;2.42;;;2.33;;
19225;SDS011;9747;48.536;12.522;2023-02-15T06:42:48;2.58;;;2.38;;
19225;SDS011;9747;48.536;12.522;2023-02-15T06:45:15;2.85;;;2.30;;
19225;SDS011;9747;48.536;12.522;2023-02-15T06:47:43;2.65;;;2.45;;
19225;SDS011;9747;48.536;12.522;2023-02-15T06:50:10;2.50;;;2.30;;
19225;SDS011;9747;48.536;12.522;2023-02-15T06:52:38;2.25;;;1.98;;
19225;SDS011;9747;48.536;12.522;2023-02-15T06:55:07;2.20;;;2.10;;
19225;SDS011;9747;48.536;12.522;2023-02-15T06:57:34;2.30;;;2.20;;
19225;SDS011;9747;48.536;12.522;2023-02-15T07:00:02;2.38;;;2.25;;
19225;SDS011;9747;48.536;12.522;2023-02-15T07:02:31;3.05;;;2.40;;
19225;SDS011;9747;48.536;12.522;2023-02-15T07:04:59;2.50;;;2.30;;
19225;SDS011;9747;48.536;12.522;2023-02-15T07:07:26;2.38;;;2.20;;
19225;SDS011;9747;48.536;12.522;2023-02-15T07:09:54;2.25;;;2.03;;
19225;SDS011;9747;48.536;12.522;2023-02-15T07:12:22;2.42;;;2.05;;
19225;SDS011;9747;48.536;12.522;2023-02-15T07:15:09;2.10;;;2.00;;
19225;SDS011;9747;48.536;12.522;2023-02-15T07:17:38;2.30;;;2.10;;
19225;SDS011;9747;48.536;12.522;2023-02-15T07:20:07;1.80;;;1.77;;
19225;SDS011;9747;48.536;12.522;2023-02-15T07:22:37;2.08;;;1.98;;
19225;SDS011;9747;48.536;12.522;2023-02-15T07:25:04;1.88;;;1.77;;
19225;SDS011;9747;48.536;12.522;2023-02-15T07:27:35;2.10;;;2.00;;
19225;SDS011;9747;48.536;12.522;2023-02-15T07:30:03;3.45;;;2.20;;
19225;SDS011;9747;48.536;12.522;2023-02-15T07:32:32;2.03;;;1.88;;
19225;SDS011;9747;48.536;12.522;2023-02-15T07:35:00;2.30;;;2.10;;
19225;SDS011;9747;48.536;12.522;2023-02-15T07:37:27;2.00;;;1.90;;
19225;SDS011;9747;48.536;12.522;2023-02-15T07:39:55;2.00;;;1.90;;
19225;SDS011;9747;48.536;12.522;2023-02-15T07:42:22;2.25;;;2.05;;
19225;SDS011;9747;48.536;12.522;2023-02-15T07:44:51;2.20;;;2.00;;
19225;SDS011;9747;48.536;12.522;2023-02-15T07:47:19;1.83;;;1.73;;
19225;SDS011;9747;48.536;12.522;2023-02-15T07:49:46;2.10;;;2.00;;
19225;SDS011;9747;48.536;12.522;2023-02-15T07:52:14;1.95;;;1.85;;
19225;SDS011;9747;48.536;12.522;2023-02-15T07:54:42;2.00;;;1.90;;
19225;SDS011;9747;48.536;12.522;2023-02-15T07:57:09;2.08;;;1.98;;
19225;SDS011;9747;48.536;12.522;2023-02-15T07:59:36;1.92;;;1.83;;
19225;SDS011;9747;48.536;12.522;2023-02-15T08:02:07;2.00;;;1.90;;
19225;SDS011;9747;48.536;12.522;2023-02-15T08:04:35;2.03;;;1.92;;
19225;SDS011;9747;48.536;12.522;2023-02-15T08:07:03;2.05;;;1.85;;
19225;SDS011;9747;48.536;12.522;2023-02-15T08:09:31;2.10;;;2.00;;
19225;SDS011;9747;48.536;12.522;2023-02-15T08:11:59;2.30;;;2.17;;
19225;SDS011;9747;48.536;12.522;2023-02-15T08:14:27;3.40;;;2.00;;
19225;SDS011;9747;48.536;12.522;2023-02-15T08:16:58;2.45;;;2.10;;
19225;SDS011;9747;48.536;12.522;2023-02-15T08:19:29;11.85;;;10.20;;
19225;SDS011;9747;48.536;12.522;2023-02-15T08:22:00;7.00;;;3.47;;
19225;SDS011;9747;48.536;12.522;2023-02-15T08:24:29;4.70;;;3.25;;
19225;SDS011;9747;48.536;12.522;2023-02-15T08:26:58;3.80;;;2.90;;
19225;SDS011;9747;48.536;12.522;2023-02-15T08:29:28;5.28;;;3.20;;
19225;SDS011;9747;48.536;12.522;2023-02-15T08:31:57;4.95;;;2.95;;
19225;SDS011;9747;48.536;12.522;2023-02-15T08:34:28;4.22;;;3.50;;
19225;SDS011;9747;48.536;12.522;2023-02-15T08:36:57;4.68;;;2.90;;
19225;SDS011;9747;48.536;12.522;2023-02-15T08:39:25;7.43;;;3.08;;
19225;SDS011;9747;48.536;12.522;2023-02-15T08:41:53;4.03;;;2.85;;
19225;SDS011;9747;48.536;12.522;2023-02-15T08:44:21;8.20;;;7.13;;
19225;SDS011;9747;48.536;12.522;2023-02-15T08:46:49;7.22;;;5.82;;
19225;SDS011;9747;48.536;12.522;2023-02-15T08:49:18;7.28;;;4.70;;
19225;SDS011;9747;48.536;12.522;2023-02-15T08:51:48;5.85;;;4.25;;
19225;SDS011;9747;48.536;12.522;2023-02-15T08:54:17;4.85;;;4.00;;
19225;SDS011;9747;48.536;12.522;2023-02-15T08:56:46;5.05;;;4.55;;
19225;SDS011;9747;48.536;12.522;2023-02-15T08:59:16;6.30;;;4.18;;
19225;SDS011;9747;48.536;12.522;2023-02-15T09:01:45;5.88;;;4.65;;
19225;SDS011;9747;48.536;12.522;2023-02-15T09:04:13;5.28;;;3.63;;
19225;SDS011;9747;48.536;12.522;2023-02-15T09:06:41;6.32;;;4.53;;
19225;SDS011;9747;48.536;12.522;2023-02-15T09:09:12;5.80;;;4.65;;
19225;SDS011;9747;48.536;12.522;2023-02-15T09:11:40;5.93;;;4.22;;
19225;SDS011;9747;48.536;12.522;2023-02-15T09:14:10;7.75;;;3.83;;
19225;SDS011;9747;48.536;12.522;2023-02-15T09:16:39;5.90;;;3.95;;
19225;SDS011;9747;48.536;12.522;2023-02-15T09:19:09;3.65;;;3.28;;
19225;SDS011;9747;48.536;12.522;2023-02-15T09:21:37;3.83;;;3.33;;
19225;SDS011;9747;48.536;12.522;2023-02-15T09:24:06;8.05;;;3.72;;
19225;SDS011;9747;48.536;12.522;2023-02-15T09:26:37;4.53;;;2.95;;
19225;SDS011;9747;48.536;12.522;2023-02-15T09:29:08;6.40;;;3.63;;
19225;SDS011;9747;48.536;12.522;2023-02-15T09:31:37;5.68;;;3.67;;
19225;SDS011;9747;48.536;12.522;2023-02-15T09:34:09;4.90;;;3.28;;
19225;SDS011;9747;48.536;12.522;2023-02-15T09:36:37;4.68;;;3.50;;
19225;SDS011;9747;48.536;12.522;2023-02-15T09:39:06;6.43;;;3.47;;
19225;SDS011;9747;48.536;12.522;2023-02-15T09:41:42;4.63;;;3.38;;
19225;SDS011;9747;48.536;12.522;2023-02-15T09:44:55;6.40;;;5.80;;
19225;SDS011;9747;48.536;12.522;2023-02-15T09:47:44;4.78;;;4.15;;
19225;SDS011;9747;48.536;12.522;2023-02-15T09:50:36;4.30;;;3.90;;
19225;SDS011;9747;48.536;12.522;2023-02-15T09:56:13;5.95;;;4.00;;
19225;SDS011;9747;48.536;12.522;2023-02-15T09:58:52;3.67;;;3.30;;
19225;SDS011;9747;48.536;12.522;2023-02-15T10:01:27;7.22;;;3.60;;
19225;SDS011;9747;48.536;12.522;2023-02-15T10:04:10;4.60;;;2.97;;
19225;SDS011;9747;48.536;12.522;2023-02-15T10:06:51;3.90;;;3.50;;
19225;SDS011;9747;48.536;12.522;2023-02-15T10:12:23;4.20;;;3.08;;
19225;SDS011;9747;48.536;12.522;2023-02-15T10:15:13;3.53;;;3.22;;
19225;SDS011;9747;48.536;12.522;2023-02-15T10:17:55;4.25;;;3.20;;
19225;SDS011;9747;48.536;12.522;2023-02-15T10:20:38;5.50;;;3.42;;
19225;SDS011;9747;48.536;12.522;2023-02-15T10:23:21;3.53;;;3.22;;
19225;SDS011;9747;48.536;12.522;2023-02-15T10:26:01;3.45;;;2.97;;
19225;SDS011;9747;48.536;12.522;2023-02-15T10:28:39;3.10;;;2.90;;
19225;SDS011;9747;48.536;12.522;2023-02-15T10:31:15;3.05;;;2.85;;
19225;SDS011;9747;48.536;12.522;2023-02-15T10:33:58;4.90;;;2.92;;
19225;SDS011;9747;48.536;12.522;2023-02-15T10:36:42;3.38;;;3.13;;
19225;SDS011;9747;48.536;12.522;2023-02-15T10:40:05;3.22;;;2.92;;
19225;SDS011;9747;48.536;12.522;2023-02-15T10:42:40;4.05;;;2.90;;
19225;SDS011;9747;48.536;12.522;2023-02-15T10:45:20;3.00;;;2.80;;
19225;SDS011;9747;48.536;12.522;2023-02-15T10:47:59;3.88;;;2.92;;
19225;SDS011;9747;48.536;12.522;2023-02-15T10:50:45;3.58;;;3.28;;
19225;SDS011;9747;48.536;12.522;2023-02-15T10:53:21;3.20;;;2.75;;
19225;SDS011;9747;48.536;12.522;2023-02-15T10:56:05;3.38;;;2.80;;
19225;SDS011;9747;48.536;12.522;2023-02-15T10:58:46;2.47;;;2.38;;
19225;SDS011;9747;48.536;12.522;2023-02-15T11:01:40;2.75;;;2.55;;
19225;SDS011;9747;48.536;12.522;2023-02-15T11:04:27;2.90;;;2.70;;
19225;SDS011;9747;48.536;12.522;2023-02-15T11:07:08;3.25;;;3.05;;
19225;SDS011;9747;48.536;12.522;2023-02-15T11:09:42;3.25;;;2.90;;
19225;SDS011;9747;48.536;12.522;2023-02-15T11:12:13;3.00;;;2.70;;
19225;SDS011;9747;48.536;12.522;2023-02-15T11:14:46;2.63;;;2.35;;
19225;SDS011;9747;48.536;12.522;2023-02-15T11:17:21;3.42;;;2.60;;
19225;SDS011;9747;48.536;12.522;2023-02-15T11:19:54;3.08;;;2.88;;
19225;SDS011;9747;48.536;12.522;2023-02-15T11:22:27;2.70;;;2.50;;
19225;SDS011;9747;48.536;12.522;2023-02-15T11:24:56;2.72;;;2.60;;
19225;SDS011;9747;48.536;12.522;2023-02-15T11:27:25;3.47;;;3.05;;
19225;SDS011;9747;48.536;12.522;2023-02-15T11:29:57;4.53;;;2.70;;
19225;SDS011;9747;48.536;12.522;2023-02-15T11:32:27;2.67;;;2.47;;
19225;SDS011;9747;48.536;12.522;2023-02-15T11:35:01;3.78;;;2.97;;
19225;SDS011;9747;48.536;12.522;2023-02-15T11:37:34;3.72;;;2.53;;
19225;SDS011;9747;48.536;12.522;2023-02-15T11:40:13;3.38;;;2.60;;
19225;SDS011;9747;48.536;12.522;2023-02-15T11:42:46;4.20;;;2.80;;
19225;SDS011;9747;48.536;12.522;2023-02-15T11:45:21;3.08;;;2.78;;
19225;SDS011;9747;48.536;12.522;2023-02-15T11:47:52;3.08;;;2.72;;
19225;SDS011;9747;48.536;12.522;2023-02-15T11:50:22;3.10;;;2.80;;
19225;SDS011;9747;48.536;12.522;2023-02-15T11:52:52;3.10;;;2.90;;
19225;SDS011;9747;48.536;12.522;2023-02-15T11:55:23;2.50;;;2.40;;
19225;SDS011;9747;48.536;12.522;2023-02-15T11:57:52;2.90;;;2.70;;
19225;SDS011;9747;48.536;12.522;2023-02-15T12:00:25;3.33;;;3.03;;
19225;SDS011;9747;48.536;12.522;2023-02-15T12:03:02;2.88;;;2.65;;
19225;SDS011;9747;48.536;12.522;2023-02-15T12:05:40;4.25;;;2.55;;
19225;SDS011;9747;48.536;12.522;2023-02-15T12:08:12;2.85;;;2.58;;
19225;SDS011;9747;48.536;12.522;2023-02-15T12:10:46;3.58;;;3.15;;
19225;SDS011;9747;48.536;12.522;2023-02-15T12:13:23;2.95;;;2.75;;
19225;SDS011;9747;48.536;12.522;2023-02-15T12:15:52;3.22;;;2.95;;
19225;SDS011;9747;48.536;12.522;2023-02-15T12:18:33;2.85;;;2.65;;
19225;SDS011;9747;48.536;12.522;2023-02-15T12:21:07;3.05;;;2.72;;
19225;SDS011;9747;48.536;12.522;2023-02-15T12:23:40;2.88;;;2.67;;
19225;SDS011;9747;48.536;12.522;2023-02-15T12:26:10;3.67;;;3.38;;
19225;SDS011;9747;48.536;12.522;2023-02-15T12:28:38;3.17;;;2.88;;
19225;SDS011;9747;48.536;12.522;2023-02-15T12:31:09;3.70;;;3.40;;
19225;SDS011;9747;48.536;12.522;2023-02-15T12:33:46;3.67;;;3.38;;
19225;SDS011;9747;48.536;12.522;2023-02-15T12:36:17;3.33;;;3.13;;
19225;SDS011;9747;48.536;12.522;2023-02-15T12:41:31;8.48;;;7.63;;
19225;SDS011;9747;48.536;12.522;2023-02-15T12:44:03;10.63;;;9.40;;
19225;SDS011;9747;48.536;12.522;2023-02-15T12:46:32;7.15;;;6.45;;
19225;SDS011;9747;48.536;12.522;2023-02-15T12:49:07;5.32;;;4.82;;
19225;SDS011;9747;48.536;12.522;2023-02-15T12:51:48;5.50;;;5.00;;
19225;SDS011;9747;48.536;12.522;2023-02-15T12:54:21;5.40;;;4.90;;
19225;SDS011;9747;48.536;12.522;2023-02-15T12:56:57;4.68;;;4.13;;
19225;SDS011;9747;48.536;12.522;2023-02-15T12:59:29;4.75;;;4.35;;
19225;SDS011;9747;48.536;12.522;2023-02-15T13:01:56;4.72;;;4.25;;
19225;SDS011;9747;48.536;12.522;2023-02-15T13:04:24;5.13;;;4.65;;
19225;SDS011;9747;48.536;12.522;2023-02-15T13:06:55;4.93;;;4.53;;
19225;SDS011;9747;48.536;12.522;2023-02-15T13:09:34;4.47;;;4.07;;
19225;SDS011;9747;48.536;12.522;2023-02-15T13:12:09;4.95;;;4.53;;
19225;SDS011;9747;48.536;12.522;2023-02-15T13:14:43;4.43;;;4.03;;
19225;SDS011;9747;48.536;12.522;2023-02-15T13:17:13;4.95;;;4.10;;
19225;SDS011;9747;48.536;12.522;2023-02-15T13:19:44;4.30;;;4.00;;
19225;SDS011;9747;48.536;12.522;2023-02-15T13:22:16;4.50;;;4.10;;
19225;SDS011;9747;48.536;12.522;2023-02-15T13:24:48;4.32;;;4.03;;
19225;SDS011;9747;48.536;12.522;2023-02-15T13:27:20;8.48;;;7.43;;
19225;SDS011;9747;48.536;12.522;2023-02-15T13:29:49;8.77;;;8.02;;
19225;SDS011;9747;48.536;12.522;2023-02-15T13:32:22;7.60;;;6.90;;
19225;SDS011;9747;48.536;12.522;2023-02-15T13:34:56;7.82;;;6.20;;
19225;SDS011;9747;48.536;12.522;2023-02-15T13:37:32;6.32;;;5.72;;
19225;SDS011;9747;48.536;12.522;2023-02-15T13:40:13;5.32;;;4.82;;
19225;SDS011;9747;48.536;12.522;2023-02-15T13:42:45;5.32;;;4.93;;
19225;SDS011;9747;48.536;12.522;2023-02-15T13:45:28;5.15;;;4.68;;
19225;SDS011;9747;48.536;12.522;2023-02-15T13:48:05;4.82;;;4.38;;
19225;SDS011;9747;48.536;12.522;2023-02-15T13:50:48;4.50;;;4.10;;
19225;SDS011;9747;48.536;12.522;2023-02-15T13:56:41;3.90;;;3.60;;
19225;SDS011;9747;48.536;12.522;2023-02-15T13:59:18;4.32;;;3.92;;
19225;SDS011;9747;48.536;12.522;2023-02-15T14:02:23;4.25;;;3.95;;
19225;SDS011;9747;48.536;12.522;2023-02-15T14:05:31;4.22;;;3.83;;
19225;SDS011;9747;48.536;12.522;2023-02-15T14:08:10;7.18;;;5.53;;
19225;SDS011;9747;48.536;12.522;2023-02-15T14:10:53;7.00;;;6.28;;
19225;SDS011;9747;48.536;12.522;2023-02-15T14:13:31;8.85;;;7.00;;
19225;SDS011;9747;48.536;12.522;2023-02-15T14:16:27;8.15;;;6.70;;
19225;SDS011;9747;48.536;12.522;2023-02-15T14:19:05;10.57;;;8.00;;
19225;SDS011;9747;48.536;12.522;2023-02-15T14:21:43;8.20;;;6.60;;
19225;SDS011;9747;48.536;12.522;2023-02-15T14:24:17;8.05;;;6.43;;
19225;SDS011;9747;48.536;12.522;2023-02-15T14:26:56;8.70;;;6.47;;
19225;SDS011;9747;48.536;12.522;2023-02-15T14:29:37;8.10;;;6.20;;
19225;SDS011;9747;48.536;12.522;2023-02-15T14:32:14;7.15;;;5.90;;
19225;SDS011;9747;48.536;12.522;2023-02-15T14:34:50;8.02;;;6.38;;
19225;SDS011;9747;48.536;12.522;2023-02-15T14:37:21;10.60;;;6.53;;
19225;SDS011;9747;48.536;12.522;2023-02-15T14:40:00;7.75;;;6.00;;
19225;SDS011;9747;48.536;12.522;2023-02-15T14:42:53;7.35;;;5.57;;
19225;SDS011;9747;48.536;12.522;2023-02-15T14:45:27;8.60;;;5.80;;
19225;SDS011;9747;48.536;12.522;2023-02-15T14:48:00;6.05;;;5.35;;
19225;SDS011;9747;48.536;12.522;2023-02-15T14:50:44;6.03;;;5.40;;
19225;SDS011;9747;48.536;12.522;2023-02-15T14:53:16;7.43;;;5.47;;
19225;SDS011;9747;48.536;12.522;2023-02-15T14:56:04;6.20;;;5.07;;
19225;SDS011;9747;48.536;12.522;2023-02-15T14:58:58;6.85;;;5.07;;
19225;SDS011;9747;48.536;12.522;2023-02-15T15:01:40;7.38;;;5.20;;
19225;SDS011;9747;48.536;12.522;2023-02-15T15:04:10;6.13;;;5.13;;
19225;SDS011;9747;48.536;12.522;2023-02-15T15:06:41;5.07;;;4.57;;
19225;SDS011;9747;48.536;12.522;2023-02-15T15:09:10;5.70;;;4.47;;
19225;SDS011;9747;48.536;12.522;2023-02-15T15:11:41;7.88;;;4.88;;
19225;SDS011;9747;48.536;12.522;2023-02-15T15:17:06;8.68;;;7.78;;
19225;SDS011;9747;48.536;12.522;2023-02-15T15:22:38;7.75;;;5.85;;
19225;SDS011;9747;48.536;12.522;2023-02-15T15:25:12;6.97;;;5.90;;
19225;SDS011;9747;48.536;12.522;2023-02-15T15:28:10;6.97;;;5.60;;
19225;SDS011;9747;48.536;12.522;2023-02-15T15:31:35;7.35;;;5.43;;
19225;SDS011;9747;48.536;12.522;2023-02-15T15:34:18;6.20;;;4.63;;
19225;SDS011;9747;48.536;12.522;2023-02-15T15:37:16;4.97;;;4.53;;
19225;SDS011;9747;48.536;12.522;2023-02-15T15:43:54;5.45;;;4.50;;
19225;SDS011;9747;48.536;12.522;2023-02-15T15:46:47;6.30;;;5.10;;
19225;SDS011;9747;48.536;12.522;2023-02-15T15:49:39;6.18;;;5.13;;